sensor_id;sensor_type;location;lat;lon;timestamp;temperature;humidity
16305;DHT22;8261;47.678;-122.174;2023-04-24T00:01:49;11.00;99.90
16305;DHT22;8261;47.678;-122.174;2023-04-24T00:04:21;10.90;99.90
16305;DHT22;8261;47.678;-122.174;2023-04-24T00:06:54;11.00;99.90
16305;DHT22;8261;47.678;-122.174;2023-04-24T00:09:28;10.90;99.90
16305;DHT22;8261;47.678;-122.174;2023-04-24T00:12:02;10.90;99.90
16305;DHT22;8261;47.678;-122.174;2023-04-24T00:14:34;10.80;99.90
16305;DHT22;8261;47.678;-122.174;2023-04-24T00:17:06;10.80;99.90
16305;DHT22;8261;47.678;-122.174;2023-04-24T00:19:37;10.70;99.90
16305;DHT22;8261;47.678;-122.174;2023-04-24T00:22:09;10.70;99.90
16305;DHT22;8261;47.678;-122.174;2023-04-24T00:24:42;10.70;99.90
16305;DHT22;8261;47.678;-122.174;2023-04-24T00:27:15;10.80;99.90
16305;DHT22;8261;47.678;-122.174;2023-04-24T00:29:47;10.60;99.90
16305;DHT22;8261;47.678;-122.174;2023-04-24T00:32:18;10.60;99.90
16305;DHT22;8261;47.678;-122.174;2023-04-24T00:34:50;10.60;99.90
16305;DHT22;8261;47.678;-122.174;2023-04-24T00:37:22;10.60;99.90
16305;DHT22;8261;47.678;-122.174;2023-04-24T00:39:53;10.50;99.90
16305;DHT22;8261;47.678;-122.174;2023-04-24T00:42:26;10.40;99.90
16305;DHT22;8261;47.678;-122.174;2023-04-24T00:45:03;10.30;99.90
16305;DHT22;8261;47.678;-122.174;2023-04-24T00:47:35;10.20;99.90
16305;DHT22;8261;47.678;-122.174;2023-04-24T00:50:08;10.10;99.90
16305;DHT22;8261;47.678;-122.174;2023-04-24T00:52:40;10.10;99.90
16305;DHT22;8261;47.678;-122.174;2023-04-24T00:55:11;10.20;99.90
16305;DHT22;8261;47.678;-122.174;2023-04-24T00:57:45;10.10;99.90
16305;DHT22;8261;47.678;-122.174;2023-04-24T01:00:18;10.10;99.90
16305;DHT22;8261;47.678;-122.174;2023-04-24T01:02:50;10.10;99.90
16305;DHT22;8261;47.678;-122.174;2023-04-24T01:05:23;10.10;99.90
16305;DHT22;8261;47.678;-122.174;2023-04-24T01:07:54;10.10;99.90
16305;DHT22;8261;47.678;-122.174;2023-04-24T01:10:27;10.00;99.90
16305;DHT22;8261;47.678;-122.174;2023-04-24T01:13:02;9.90;99.90
16305;DHT22;8261;47.678;-122.174;2023-04-24T01:15:34;9.80;99.90
16305;DHT22;8261;47.678;-122.174;2023-04-24T01:18:06;9.80;99.90
16305;DHT22;8261;47.678;-122.174;2023-04-24T01:20:39;9.90;99.90
16305;DHT22;8261;47.678;-122.174;2023-04-24T01:23:16;9.80;99.90
16305;DHT22;8261;47.678;-122.174;2023-04-24T01:25:47;9.80;99.90
16305;DHT22;8261;47.678;-122.174;2023-04-24T01:28:20;9.80;99.90
16305;DHT22;8261;47.678;-122.174;2023-04-24T01:30:53;9.80;99.90
16305;DHT22;8261;47.678;-122.174;2023-04-24T01:33:24;9.70;99.90
16305;DHT22;8261;47.678;-122.174;2023-04-24T01:35:56;9.70;99.90
16305;DHT22;8261;47.678;-122.174;2023-04-24T01:38:29;9.80;99.90
16305;DHT22;8261;47.678;-122.174;2023-04-24T01:41:01;9.80;99.90
16305;DHT22;8261;47.678;-122.174;2023-04-24T01:43:32;9.70;99.90
16305;DHT22;8261;47.678;-122.174;2023-04-24T01:46:04;9.70;99.90
16305;DHT22;8261;47.678;-122.174;2023-04-24T01:48:37;9.70;99.90
16305;DHT22;8261;47.678;-122.174;2023-04-24T01:51:09;9.60;99.90
16305;DHT22;8261;47.678;-122.174;2023-04-24T01:53:48;9.70;99.90
16305;DHT22;8261;47.678;-122.174;2023-04-24T01:56:20;9.70;99.90
16305;DHT22;8261;47.678;-122.174;2023-04-24T01:58:53;9.70;99.90
16305;DHT22;8261;47.678;-122.174;2023-04-24T02:01:25;9.60;99.90
16305;DHT22;8261;47.678;-122.174;2023-04-24T02:03:57;9.60;99.90
16305;DHT22;8261;47.678;-122.174;2023-04-24T02:06:29;9.50;99.90
16305;DHT22;8261;47.678;-122.174;2023-04-24T02:09:03;9.60;99.90
16305;DHT22;8261;47.678;-122.174;2023-04-24T02:11:34;9.50;99.90
16305;DHT22;8261;47.678;-122.174;2023-04-24T02:14:05;9.50;99.90
16305;DHT22;8261;47.678;-122.174;2023-04-24T02:16:37;9.50;99.90
16305;DHT22;8261;47.678;-122.174;2023-04-24T02:19:09;9.50;99.90
16305;DHT22;8261;47.678;-122.174;2023-04-24T02:21:40;9.50;99.90
16305;DHT22;8261;47.678;-122.174;2023-04-24T02:24:13;9.40;99.90
16305;DHT22;8261;47.678;-122.174;2023-04-24T02:26:44;9.40;99.90
16305;DHT22;8261;47.678;-122.174;2023-04-24T02:29:15;9.40;99.90
16305;DHT22;8261;47.678;-122.174;2023-04-24T02:31:47;9.40;99.90
16305;DHT22;8261;47.678;-122.174;2023-04-24T02:34:19;9.40;99.90
16305;DHT22;8261;47.678;-122.174;2023-04-24T02:36:51;9.40;99.90
16305;DHT22;8261;47.678;-122.174;2023-04-24T02:39:25;9.30;99.90
16305;DHT22;8261;47.678;-122.174;2023-04-24T02:41:57;9.30;99.90
16305;DHT22;8261;47.678;-122.174;2023-04-24T02:44:29;9.30;99.90
16305;DHT22;8261;47.678;-122.174;2023-04-24T02:47:01;9.30;99.90
16305;DHT22;8261;47.678;-122.174;2023-04-24T02:49:32;9.30;99.90
16305;DHT22;8261;47.678;-122.174;2023-04-24T02:52:04;9.30;99.90
16305;DHT22;8261;47.678;-122.174;2023-04-24T02:54:41;9.30;99.90
16305;DHT22;8261;47.678;-122.174;2023-04-24T02:57:12;9.30;99.90
16305;DHT22;8261;47.678;-122.174;2023-04-24T02:59:44;9.20;99.90
16305;DHT22;8261;47.678;-122.174;2023-04-24T03:02:16;9.30;99.90
16305;DHT22;8261;47.678;-122.174;2023-04-24T03:04:47;9.30;99.90
16305;DHT22;8261;47.678;-122.174;2023-04-24T03:07:19;9.20;99.90
16305;DHT22;8261;47.678;-122.174;2023-04-24T03:09:55;9.20;99.90
16305;DHT22;8261;47.678;-122.174;2023-04-24T03:12:27;9.20;99.90
16305;DHT22;8261;47.678;-122.174;2023-04-24T03:14:58;9.20;99.90
16305;DHT22;8261;47.678;-122.174;2023-04-24T03:17:29;9.10;99.90
16305;DHT22;8261;47.678;-122.174;2023-04-24T03:20:02;9.10;99.90
16305;DHT22;8261;47.678;-122.174;2023-04-24T03:22:35;9.20;99.90
16305;DHT22;8261;47.678;-122.174;2023-04-24T03:25:10;9.20;99.90
16305;DHT22;8261;47.678;-122.174;2023-04-24T03:27:41;9.20;99.90
16305;DHT22;8261;47.678;-122.174;2023-04-24T03:30:14;9.20;99.90
16305;DHT22;8261;47.678;-122.174;2023-04-24T03:32:46;9.20;99.90
16305;DHT22;8261;47.678;-122.174;2023-04-24T03:35:17;9.20;99.90
16305;DHT22;8261;47.678;-122.174;2023-04-24T03:37:50;9.10;99.90
16305;DHT22;8261;47.678;-122.174;2023-04-24T03:40:24;9.10;99.90
16305;DHT22;8261;47.678;-122.174;2023-04-24T03:42:58;9.10;99.90
16305;DHT22;8261;47.678;-122.174;2023-04-24T03:45:30;9.10;99.90
16305;DHT22;8261;47.678;-122.174;2023-04-24T03:48:02;9.10;99.90
16305;DHT22;8261;47.678;-122.174;2023-04-24T03:50:34;9.10;99.90
16305;DHT22;8261;47.678;-122.174;2023-04-24T03:53:06;9.10;99.90
16305;DHT22;8261;47.678;-122.174;2023-04-24T03:55:39;9.10;99.90
16305;DHT22;8261;47.678;-122.174;2023-04-24T03:58:11;9.10;99.90
16305;DHT22;8261;47.678;-122.174;2023-04-24T04:00:44;9.20;99.90
16305;DHT22;8261;47.678;-122.174;2023-04-24T04:03:19;9.20;99.90
16305;DHT22;8261;47.678;-122.174;2023-04-24T04:05:51;9.10;99.90
16305;DHT22;8261;47.678;-122.174;2023-04-24T04:08:23;9.20;99.90
16305;DHT22;8261;47.678;-122.174;2023-04-24T04:10:57;9.10;99.90
16305;DHT22;8261;47.678;-122.174;2023-04-24T04:13:31;9.10;99.90
16305;DHT22;8261;47.678;-122.174;2023-04-24T04:16:03;9.10;99.90
16305;DHT22;8261;47.678;-122.174;2023-04-24T04:18:35;9.10;99.90
16305;DHT22;8261;47.678;-122.174;2023-04-24T04:21:06;9.00;99.90
16305;DHT22;8261;47.678;-122.174;2023-04-24T04:23:38;9.00;99.90
16305;DHT22;8261;47.678;-122.174;2023-04-24T04:26:14;8.90;99.90
16305;DHT22;8261;47.678;-122.174;2023-04-24T04:28:45;8.80;99.90
16305;DHT22;8261;47.678;-122.174;2023-04-24T04:31:18;8.80;99.90
16305;DHT22;8261;47.678;-122.174;2023-04-24T04:33:49;8.90;99.90
16305;DHT22;8261;47.678;-122.174;2023-04-24T04:36:21;8.70;99.90
16305;DHT22;8261;47.678;-122.174;2023-04-24T04:38:53;8.70;99.90
16305;DHT22;8261;47.678;-122.174;2023-04-24T04:41:28;8.60;99.90
16305;DHT22;8261;47.678;-122.174;2023-04-24T04:44:00;8.60;99.90
16305;DHT22;8261;47.678;-122.174;2023-04-24T04:46:33;8.50;99.90
16305;DHT22;8261;47.678;-122.174;2023-04-24T04:49:06;8.40;99.90
16305;DHT22;8261;47.678;-122.174;2023-04-24T04:51:38;8.40;99.90
16305;DHT22;8261;47.678;-122.174;2023-04-24T04:54:10;8.30;99.90
16305;DHT22;8261;47.678;-122.174;2023-04-24T04:56:45;8.30;99.90
16305;DHT22;8261;47.678;-122.174;2023-04-24T04:59:16;8.30;99.90
16305;DHT22;8261;47.678;-122.174;2023-04-24T05:01:49;8.30;99.90
16305;DHT22;8261;47.678;-122.174;2023-04-24T05:04:23;8.20;99.90
16305;DHT22;8261;47.678;-122.174;2023-04-24T05:06:55;8.20;99.90
16305;DHT22;8261;47.678;-122.174;2023-04-24T05:09:28;8.20;99.90
16305;DHT22;8261;47.678;-122.174;2023-04-24T05:12:02;8.20;99.90
16305;DHT22;8261;47.678;-122.174;2023-04-24T05:14:35;8.20;99.90
16305;DHT22;8261;47.678;-122.174;2023-04-24T05:17:06;8.20;99.90
16305;DHT22;8261;47.678;-122.174;2023-04-24T05:19:39;8.20;99.90
16305;DHT22;8261;47.678;-122.174;2023-04-24T05:22:11;8.20;99.90
16305;DHT22;8261;47.678;-122.174;2023-04-24T05:24:43;8.10;99.90
16305;DHT22;8261;47.678;-122.174;2023-04-24T05:27:16;8.20;99.90
16305;DHT22;8261;47.678;-122.174;2023-04-24T05:29:48;8.10;99.90
16305;DHT22;8261;47.678;-122.174;2023-04-24T05:32:20;8.10;99.90
16305;DHT22;8261;47.678;-122.174;2023-04-24T05:34:52;8.10;99.90
16305;DHT22;8261;47.678;-122.174;2023-04-24T05:37:23;8.00;99.90
16305;DHT22;8261;47.678;-122.174;2023-04-24T05:39:56;8.00;99.90
16305;DHT22;8261;47.678;-122.174;2023-04-24T05:42:30;7.90;99.90
16305;DHT22;8261;47.678;-122.174;2023-04-24T05:45:01;7.90;99.90
16305;DHT22;8261;47.678;-122.174;2023-04-24T05:47:33;7.90;99.90
16305;DHT22;8261;47.678;-122.174;2023-04-24T05:50:06;7.90;99.90
16305;DHT22;8261;47.678;-122.174;2023-04-24T05:52:38;7.90;99.90
16305;DHT22;8261;47.678;-122.174;2023-04-24T05:55:09;7.90;99.90
16305;DHT22;8261;47.678;-122.174;2023-04-24T05:57:44;7.80;99.90
16305;DHT22;8261;47.678;-122.174;2023-04-24T06:00:16;7.80;99.90
16305;DHT22;8261;47.678;-122.174;2023-04-24T06:02:50;7.80;99.90
16305;DHT22;8261;47.678;-122.174;2023-04-24T06:05:23;7.80;99.90
16305;DHT22;8261;47.678;-122.174;2023-04-24T06:07:55;7.70;99.90
16305;DHT22;8261;47.678;-122.174;2023-04-24T06:10:27;7.80;99.90
16305;DHT22;8261;47.678;-122.174;2023-04-24T06:13:01;7.80;99.90
16305;DHT22;8261;47.678;-122.174;2023-04-24T06:15:33;7.70;99.90
16305;DHT22;8261;47.678;-122.174;2023-04-24T06:18:04;7.70;99.90
16305;DHT22;8261;47.678;-122.174;2023-04-24T06:20:36;7.70;99.90
16305;DHT22;8261;47.678;-122.174;2023-04-24T06:23:08;7.80;99.90
16305;DHT22;8261;47.678;-122.174;2023-04-24T06:25:40;7.80;99.90
16305;DHT22;8261;47.678;-122.174;2023-04-24T06:28:15;7.70;99.90
16305;DHT22;8261;47.678;-122.174;2023-04-24T06:30:47;7.70;99.90
16305;DHT22;8261;47.678;-122.174;2023-04-24T06:33:19;7.70;99.90
16305;DHT22;8261;47.678;-122.174;2023-04-24T06:35:51;7.70;99.90
16305;DHT22;8261;47.678;-122.174;2023-04-24T06:38:23;7.70;99.90
16305;DHT22;8261;47.678;-122.174;2023-04-24T06:40:54;7.70;99.90
16305;DHT22;8261;47.678;-122.174;2023-04-24T06:43:29;7.70;99.90
16305;DHT22;8261;47.678;-122.174;2023-04-24T06:46:01;7.70;99.90
16305;DHT22;8261;47.678;-122.174;2023-04-24T06:48:33;7.70;99.90
16305;DHT22;8261;47.678;-122.174;2023-04-24T06:51:05;7.70;99.90
16305;DHT22;8261;47.678;-122.174;2023-04-24T06:53:36;7.70;99.90
16305;DHT22;8261;47.678;-122.174;2023-04-24T06:56:08;7.70;99.90
16305;DHT22;8261;47.678;-122.174;2023-04-24T06:58:42;7.70;99.90
16305;DHT22;8261;47.678;-122.174;2023-04-24T07:01:15;7.70;99.90
16305;DHT22;8261;47.678;-122.174;2023-04-24T07:03:46;7.70;99.90
16305;DHT22;8261;47.678;-122.174;2023-04-24T07:06:18;7.70;99.90
16305;DHT22;8261;47.678;-122.174;2023-04-24T07:08:52;7.70;99.90
16305;DHT22;8261;47.678;-122.174;2023-04-24T07:11:24;7.70;99.90
16305;DHT22;8261;47.678;-122.174;2023-04-24T07:14:01;7.70;99.90
16305;DHT22;8261;47.678;-122.174;2023-04-24T07:16:33;7.60;99.90
16305;DHT22;8261;47.678;-122.174;2023-04-24T07:19:05;7.70;99.90
16305;DHT22;8261;47.678;-122.174;2023-04-24T07:21:36;7.70;99.90
16305;DHT22;8261;47.678;-122.174;2023-04-24T07:24:08;7.70;99.90
16305;DHT22;8261;47.678;-122.174;2023-04-24T07:26:41;7.70;99.90
16305;DHT22;8261;47.678;-122.174;2023-04-24T07:29:16;7.60;99.90
16305;DHT22;8261;47.678;-122.174;2023-04-24T07:31:47;7.60;99.90
16305;DHT22;8261;47.678;-122.174;2023-04-24T07:34:19;7.60;99.90
16305;DHT22;8261;47.678;-122.174;2023-04-24T07:36:51;7.70;99.90
16305;DHT22;8261;47.678;-122.174;2023-04-24T07:39:22;7.60;99.90
16305;DHT22;8261;47.678;-122.174;2023-04-24T07:41:53;7.60;99.90
16305;DHT22;8261;47.678;-122.174;2023-04-24T07:44:27;7.60;99.90
16305;DHT22;8261;47.678;-122.174;2023-04-24T07:46:59;7.60;99.90
16305;DHT22;8261;47.678;-122.174;2023-04-24T07:49:30;7.50;99.90
16305;DHT22;8261;47.678;-122.174;2023-04-24T07:52:03;7.50;99.90
16305;DHT22;8261;47.678;-122.174;2023-04-24T07:54:35;7.50;99.90
16305;DHT22;8261;47.678;-122.174;2023-04-24T07:57:07;7.50;99.90
16305;DHT22;8261;47.678;-122.174;2023-04-24T07:59:42;7.50;99.90
16305;DHT22;8261;47.678;-122.174;2023-04-24T08:02:15;7.50;99.90
16305;DHT22;8261;47.678;-122.174;2023-04-24T08:04:46;7.50;99.90
16305;DHT22;8261;47.678;-122.174;2023-04-24T08:07:18;7.50;99.90
16305;DHT22;8261;47.678;-122.174;2023-04-24T08:09:50;7.40;99.90
16305;DHT22;8261;47.678;-122.174;2023-04-24T08:12:21;7.50;99.90
16305;DHT22;8261;47.678;-122.174;2023-04-24T08:14:55;7.40;99.90
16305;DHT22;8261;47.678;-122.174;2023-04-24T08:17:26;7.40;99.90
16305;DHT22;8261;47.678;-122.174;2023-04-24T08:19:58;7.30;99.90
16305;DHT22;8261;47.678;-122.174;2023-04-24T08:22:30;7.30;99.90
16305;DHT22;8261;47.678;-122.174;2023-04-24T08:25:02;7.30;99.90
16305;DHT22;8261;47.678;-122.174;2023-04-24T08:27:33;7.30;99.90
16305;DHT22;8261;47.678;-122.174;2023-04-24T08:30:09;7.30;99.90
16305;DHT22;8261;47.678;-122.174;2023-04-24T08:32:40;7.30;99.90
16305;DHT22;8261;47.678;-122.174;2023-04-24T08:35:12;7.30;99.90
16305;DHT22;8261;47.678;-122.174;2023-04-24T08:37:44;7.20;99.90
16305;DHT22;8261;47.678;-122.174;2023-04-24T08:40:17;7.20;99.90
16305;DHT22;8261;47.678;-122.174;2023-04-24T08:42:49;7.20;99.90
16305;DHT22;8261;47.678;-122.174;2023-04-24T08:45:24;7.10;99.90
16305;DHT22;8261;47.678;-122.174;2023-04-24T08:47:58;7.10;99.90
16305;DHT22;8261;47.678;-122.174;2023-04-24T08:50:32;7.10;99.90
16305;DHT22;8261;47.678;-122.174;2023-04-24T08:53:05;7.10;99.90
16305;DHT22;8261;47.678;-122.174;2023-04-24T08:55:38;7.10;99.90
16305;DHT22;8261;47.678;-122.174;2023-04-24T08:58:10;7.10;99.90
16305;DHT22;8261;47.678;-122.174;2023-04-24T09:00:45;7.10;99.90
16305;DHT22;8261;47.678;-122.174;2023-04-24T09:03:17;7.10;99.90
16305;DHT22;8261;47.678;-122.174;2023-04-24T09:05:49;7.10;99.90
16305;DHT22;8261;47.678;-122.174;2023-04-24T09:08:23;7.10;99.90
16305;DHT22;8261;47.678;-122.174;2023-04-24T09:10:55;7.10;99.90
16305;DHT22;8261;47.678;-122.174;2023-04-24T09:13:27;7.10;99.90
16305;DHT22;8261;47.678;-122.174;2023-04-24T09:16:01;7.10;99.90
16305;DHT22;8261;47.678;-122.174;2023-04-24T09:18:33;7.00;99.90
16305;DHT22;8261;47.678;-122.174;2023-04-24T09:21:07;7.00;99.90
16305;DHT22;8261;47.678;-122.174;2023-04-24T09:23:39;7.10;99.90
16305;DHT22;8261;47.678;-122.174;2023-04-24T09:26:12;7.00;99.90
16305;DHT22;8261;47.678;-122.174;2023-04-24T09:28:44;7.10;99.90
16305;DHT22;8261;47.678;-122.174;2023-04-24T09:31:19;7.00;99.90
16305;DHT22;8261;47.678;-122.174;2023-04-24T09:33:56;7.10;99.90
16305;DHT22;8261;47.678;-122.174;2023-04-24T09:36:30;7.10;99.90
16305;DHT22;8261;47.678;-122.174;2023-04-24T09:39:04;7.10;99.90
16305;DHT22;8261;47.678;-122.174;2023-04-24T09:41:44;7.20;99.90
16305;DHT22;8261;47.678;-122.174;2023-04-24T09:44:17;7.10;99.90
16305;DHT22;8261;47.678;-122.174;2023-04-24T09:46:53;7.20;99.90
16305;DHT22;8261;47.678;-122.174;2023-04-24T09:49:26;7.20;99.90
16305;DHT22;8261;47.678;-122.174;2023-04-24T09:52:03;7.20;99.90
16305;DHT22;8261;47.678;-122.174;2023-04-24T09:54:35;7.20;99.90
16305;DHT22;8261;47.678;-122.174;2023-04-24T09:57:08;7.20;99.90
16305;DHT22;8261;47.678;-122.174;2023-04-24T09:59:45;7.20;99.90
16305;DHT22;8261;47.678;-122.174;2023-04-24T10:02:20;7.20;99.90
16305;DHT22;8261;47.678;-122.174;2023-04-24T10:04:55;7.30;99.90
16305;DHT22;8261;47.678;-122.174;2023-04-24T10:07:28;7.30;99.90
16305;DHT22;8261;47.678;-122.174;2023-04-24T10:10:00;7.20;99.90
16305;DHT22;8261;47.678;-122.174;2023-04-24T10:12:32;7.20;99.90
16305;DHT22;8261;47.678;-122.174;2023-04-24T10:15:04;7.20;99.90
16305;DHT22;8261;47.678;-122.174;2023-04-24T10:17:41;7.30;99.90
16305;DHT22;8261;47.678;-122.174;2023-04-24T10:20:13;7.30;99.90
16305;DHT22;8261;47.678;-122.174;2023-04-24T10:22:46;7.30;99.90
16305;DHT22;8261;47.678;-122.174;2023-04-24T10:25:20;7.20;99.90
16305;DHT22;8261;47.678;-122.174;2023-04-24T10:27:53;7.20;99.90
16305;DHT22;8261;47.678;-122.174;2023-04-24T10:30:28;7.20;99.90
16305;DHT22;8261;47.678;-122.174;2023-04-24T10:33:07;7.20;99.90
16305;DHT22;8261;47.678;-122.174;2023-04-24T10:35:41;7.20;99.90
16305;DHT22;8261;47.678;-122.174;2023-04-24T10:38:15;7.30;99.90
16305;DHT22;8261;47.678;-122.174;2023-04-24T10:40:48;7.30;99.90
16305;DHT22;8261;47.678;-122.174;2023-04-24T10:43:20;7.20;99.90
16305;DHT22;8261;47.678;-122.174;2023-04-24T10:46:01;7.20;99.90
16305;DHT22;8261;47.678;-122.174;2023-04-24T10:48:36;7.20;99.90
16305;DHT22;8261;47.678;-122.174;2023-04-24T10:51:13;7.20;99.90
16305;DHT22;8261;47.678;-122.174;2023-04-24T10:53:44;7.20;99.90
16305;DHT22;8261;47.678;-122.174;2023-04-24T10:56:17;7.20;99.90
16305;DHT22;8261;47.678;-122.174;2023-04-24T10:58:51;7.20;99.90
16305;DHT22;8261;47.678;-122.174;2023-04-24T11:01:28;7.20;99.90
16305;DHT22;8261;47.678;-122.174;2023-04-24T11:04:03;7.20;99.90
16305;DHT22;8261;47.678;-122.174;2023-04-24T11:06:36;7.30;99.90
16305;DHT22;8261;47.678;-122.174;2023-04-24T11:09:08;7.30;99.90
16305;DHT22;8261;47.678;-122.174;2023-04-24T11:11:45;7.30;99.90
16305;DHT22;8261;47.678;-122.174;2023-04-24T11:14:17;7.20;99.90
16305;DHT22;8261;47.678;-122.174;2023-04-24T11:16:53;7.30;99.90
16305;DHT22;8261;47.678;-122.174;2023-04-24T11:19:27;7.30;99.90
16305;DHT22;8261;47.678;-122.174;2023-04-24T11:22:00;7.30;99.90
16305;DHT22;8261;47.678;-122.174;2023-04-24T11:24:38;7.30;99.90
16305;DHT22;8261;47.678;-122.174;2023-04-24T11:27:13;7.30;99.90
16305;DHT22;8261;47.678;-122.174;2023-04-24T11:29:46;7.30;99.90
16305;DHT22;8261;47.678;-122.174;2023-04-24T11:32:29;7.30;99.90
16305;DHT22;8261;47.678;-122.174;2023-04-24T11:35:05;7.30;99.90
16305;DHT22;8261;47.678;-122.174;2023-04-24T11:37:38;7.20;99.90
16305;DHT22;8261;47.678;-122.174;2023-04-24T11:40:12;7.20;99.90
16305;DHT22;8261;47.678;-122.174;2023-04-24T11:42:45;7.20;99.90
16305;DHT22;8261;47.678;-122.174;2023-04-24T11:45:21;7.20;99.90
16305;DHT22;8261;47.678;-122.174;2023-04-24T11:47:52;7.30;99.90
16305;DHT22;8261;47.678;-122.174;2023-04-24T11:50:27;7.20;99.90
16305;DHT22;8261;47.678;-122.174;2023-04-24T11:52:59;7.10;99.90
16305;DHT22;8261;47.678;-122.174;2023-04-24T11:55:32;7.10;99.90
16305;DHT22;8261;47.678;-122.174;2023-04-24T11:58:05;7.10;99.90
16305;DHT22;8261;47.678;-122.174;2023-04-24T12:00:36;7.10;99.90
16305;DHT22;8261;47.678;-122.174;2023-04-24T12:03:10;7.20;99.90
16305;DHT22;8261;47.678;-122.174;2023-04-24T12:05:44;7.10;99.90
16305;DHT22;8261;47.678;-122.174;2023-04-24T12:08:28;7.10;99.90
16305;DHT22;8261;47.678;-122.174;2023-04-24T12:11:01;7.20;99.90
16305;DHT22;8261;47.678;-122.174;2023-04-24T12:13:33;7.10;99.90
16305;DHT22;8261;47.678;-122.174;2023-04-24T12:16:05;7.10;99.90
16305;DHT22;8261;47.678;-122.174;2023-04-24T12:18:42;7.20;99.90
16305;DHT22;8261;47.678;-122.174;2023-04-24T12:21:23;7.20;99.90
16305;DHT22;8261;47.678;-122.174;2023-04-24T12:23:56;7.20;99.90
16305;DHT22;8261;47.678;-122.174;2023-04-24T12:26:28;7.20;99.90
16305;DHT22;8261;47.678;-122.174;2023-04-24T12:29:02;7.20;99.90
16305;DHT22;8261;47.678;-122.174;2023-04-24T12:31:34;7.30;99.90
16305;DHT22;8261;47.678;-122.174;2023-04-24T12:34:18;7.20;99.90
16305;DHT22;8261;47.678;-122.174;2023-04-24T12:36:53;7.20;99.90
16305;DHT22;8261;47.678;-122.174;2023-04-24T12:39:24;7.20;99.90
16305;DHT22;8261;47.678;-122.174;2023-04-24T12:41:56;7.20;99.90
16305;DHT22;8261;47.678;-122.174;2023-04-24T12:44:32;7.20;99.90
16305;DHT22;8261;47.678;-122.174;2023-04-24T12:47:03;7.20;99.90
16305;DHT22;8261;47.678;-122.174;2023-04-24T12:49:36;7.20;99.90
16305;DHT22;8261;47.678;-122.174;2023-04-24T12:52:10;7.10;99.90
16305;DHT22;8261;47.678;-122.174;2023-04-24T12:54:41;7.10;99.90
16305;DHT22;8261;47.678;-122.174;2023-04-24T12:57:13;7.10;99.90
16305;DHT22;8261;47.678;-122.174;2023-04-24T12:59:44;7.10;99.90
16305;DHT22;8261;47.678;-122.174;2023-04-24T13:02:16;7.10;99.90
16305;DHT22;8261;47.678;-122.174;2023-04-24T13:04:48;7.10;99.90
16305;DHT22;8261;47.678;-122.174;2023-04-24T13:07:22;7.10;99.90
16305;DHT22;8261;47.678;-122.174;2023-04-24T13:09:55;7.10;99.90
16305;DHT22;8261;47.678;-122.174;2023-04-24T13:12:27;7.00;99.90
16305;DHT22;8261;47.678;-122.174;2023-04-24T13:14:59;7.10;99.90
16305;DHT22;8261;47.678;-122.174;2023-04-24T13:17:30;7.10;99.90
16305;DHT22;8261;47.678;-122.174;2023-04-24T13:20:02;7.10;99.90
16305;DHT22;8261;47.678;-122.174;2023-04-24T13:22:37;7.10;99.90
16305;DHT22;8261;47.678;-122.174;2023-04-24T13:25:08;7.10;99.90
16305;DHT22;8261;47.678;-122.174;2023-04-24T13:27:40;7.10;99.90
16305;DHT22;8261;47.678;-122.174;2023-04-24T13:30:12;7.20;99.90
16305;DHT22;8261;47.678;-122.174;2023-04-24T13:32:43;7.20;99.90
16305;DHT22;8261;47.678;-122.174;2023-04-24T13:35:15;7.20;99.90
16305;DHT22;8261;47.678;-122.174;2023-04-24T13:37:49;7.10;99.90
16305;DHT22;8261;47.678;-122.174;2023-04-24T13:40:20;7.10;99.90
16305;DHT22;8261;47.678;-122.174;2023-04-24T13:42:52;7.10;99.90
16305;DHT22;8261;47.678;-122.174;2023-04-24T13:45:24;7.20;99.90
16305;DHT22;8261;47.678;-122.174;2023-04-24T13:47:56;7.20;99.90
16305;DHT22;8261;47.678;-122.174;2023-04-24T13:50:28;7.20;99.90
16305;DHT22;8261;47.678;-122.174;2023-04-24T13:53:02;7.10;99.90
16305;DHT22;8261;47.678;-122.174;2023-04-24T13:55:34;7.20;99.90
16305;DHT22;8261;47.678;-122.174;2023-04-24T13:58:05;7.10;99.90
16305;DHT22;8261;47.678;-122.174;2023-04-24T14:00:38;7.10;99.90
16305;DHT22;8261;47.678;-122.174;2023-04-24T14:03:10;7.00;99.90
16305;DHT22;8261;47.678;-122.174;2023-04-24T14:05:41;7.10;99.90
16305;DHT22;8261;47.678;-122.174;2023-04-24T14:08:15;7.10;99.90
16305;DHT22;8261;47.678;-122.174;2023-04-24T14:10:46;7.20;99.90
16305;DHT22;8261;47.678;-122.174;2023-04-24T14:13:18;7.20;99.90
16305;DHT22;8261;47.678;-122.174;2023-04-24T14:15:49;7.30;99.90
16305;DHT22;8261;47.678;-122.174;2023-04-24T14:18:21;7.40;99.90
16305;DHT22;8261;47.678;-122.174;2023-04-24T14:20:53;7.40;99.90
16305;DHT22;8261;47.678;-122.174;2023-04-24T14:23:26;7.40;99.90
16305;DHT22;8261;47.678;-122.174;2023-04-24T14:25:59;7.50;99.90
16305;DHT22;8261;47.678;-122.174;2023-04-24T14:28:30;7.50;99.90
16305;DHT22;8261;47.678;-122.174;2023-04-24T14:31:01;7.60;99.90
16305;DHT22;8261;47.678;-122.174;2023-04-24T14:33:32;7.70;99.90
16305;DHT22;8261;47.678;-122.174;2023-04-24T14:36:03;7.80;99.90
16305;DHT22;8261;47.678;-122.174;2023-04-24T14:38:37;7.80;99.90
16305;DHT22;8261;47.678;-122.174;2023-04-24T14:41:08;7.80;99.90
16305;DHT22;8261;47.678;-122.174;2023-04-24T14:43:41;7.80;99.90
16305;DHT22;8261;47.678;-122.174;2023-04-24T14:46:13;7.80;99.90
16305;DHT22;8261;47.678;-122.174;2023-04-24T14:48:45;7.80;99.90
16305;DHT22;8261;47.678;-122.174;2023-04-24T14:51:16;7.70;99.90
16305;DHT22;8261;47.678;-122.174;2023-04-24T14:53:50;7.80;99.90
16305;DHT22;8261;47.678;-122.174;2023-04-24T14:56:22;7.90;99.90
16305;DHT22;8261;47.678;-122.174;2023-04-24T14:58:54;7.90;99.90
16305;DHT22;8261;47.678;-122.174;2023-04-24T15:01:26;7.90;99.90
16305;DHT22;8261;47.678;-122.174;2023-04-24T15:03:58;7.80;99.90
16305;DHT22;8261;47.678;-122.174;2023-04-24T15:06:30;7.70;99.90
16305;DHT22;8261;47.678;-122.174;2023-04-24T15:09:04;7.90;99.90
16305;DHT22;8261;47.678;-122.174;2023-04-24T15:11:36;8.00;99.90
16305;DHT22;8261;47.678;-122.174;2023-04-24T15:14:08;8.10;99.90
16305;DHT22;8261;47.678;-122.174;2023-04-24T15:16:40;8.20;99.90
16305;DHT22;8261;47.678;-122.174;2023-04-24T15:19:12;8.20;99.90
16305;DHT22;8261;47.678;-122.174;2023-04-24T15:21:44;8.30;99.90
16305;DHT22;8261;47.678;-122.174;2023-04-24T15:24:18;8.30;99.90
16305;DHT22;8261;47.678;-122.174;2023-04-24T15:26:49;8.30;99.90
16305;DHT22;8261;47.678;-122.174;2023-04-24T15:29:21;8.10;99.90
16305;DHT22;8261;47.678;-122.174;2023-04-24T15:31:53;8.10;99.90
16305;DHT22;8261;47.678;-122.174;2023-04-24T15:34:25;8.10;99.90
16305;DHT22;8261;47.678;-122.174;2023-04-24T15:36:56;8.10;99.90
16305;DHT22;8261;47.678;-122.174;2023-04-24T15:39:30;8.10;99.90
16305;DHT22;8261;47.678;-122.174;2023-04-24T15:42:02;8.10;99.90
16305;DHT22;8261;47.678;-122.174;2023-04-24T15:44:37;8.10;99.90
16305;DHT22;8261;47.678;-122.174;2023-04-24T15:47:11;8.10;99.90
16305;DHT22;8261;47.678;-122.174;2023-04-24T15:49:43;8.20;99.90